createdAt,value
2022-08-05T00:01:01.062Z,14.88
2022-08-05T00:02:21.468Z,14.88
2022-08-05T00:03:24.710Z,14.87
2022-08-05T00:04:29.468Z,14.88
2022-08-05T00:06:04.755Z,14.87
2022-08-05T00:06:56.827Z,14.85
2022-08-05T00:08:01.495Z,14.85
2022-08-05T00:09:12.828Z,14.83
2022-08-05T00:10:17.847Z,14.84
2022-08-05T00:11:30.284Z,14.81
2022-08-05T00:12:55.698Z,14.79
2022-08-05T00:14:01.339Z,14.74
2022-08-05T00:15:13.952Z,14.72
2022-08-05T00:16:36.226Z,14.71
2022-08-05T00:17:55.734Z,14.70
2022-08-05T00:18:59.302Z,14.71
2022-08-05T00:20:03.711Z,14.72
2022-08-05T00:21:08.483Z,14.74
2022-08-05T00:22:13.087Z,14.75
2022-08-05T00:23:16.367Z,14.76
2022-08-05T00:24:24.882Z,14.77
2022-08-05T00:25:45.387Z,14.78
2022-08-05T00:26:50.852Z,14.77
2022-08-05T00:27:55.496Z,14.77
2022-08-05T00:28:59.674Z,14.77
2022-08-05T00:30:03.439Z,14.75
2022-08-05T00:31:08.464Z,14.75
2022-08-05T00:32:14.979Z,14.73
2022-08-05T00:34:54.081Z,14.72
2022-08-05T00:35:05.197Z,14.70
2022-08-05T00:36:16.083Z,14.67
2022-08-05T00:37:51.359Z,14.64
2022-08-05T00:38:56.840Z,14.60
2022-08-05T00:40:04.154Z,14.62
2022-08-05T00:41:14.275Z,14.63
2022-08-05T00:42:31.534Z,14.64
2022-08-05T00:43:47.075Z,14.66
2022-08-05T00:44:53.125Z,14.70
2022-08-05T00:45:58.600Z,14.71
2022-08-05T00:47:04.073Z,14.72
2022-08-05T00:48:10.592Z,14.71
2022-08-05T00:49:14.699Z,14.67
2022-08-05T00:50:20.905Z,14.66
2022-08-05T00:51:51.525Z,14.62
2022-08-05T00:52:48.781Z,14.58
2022-08-05T00:54:02.432Z,14.57
2022-08-05T00:55:07.206Z,14.57
2022-08-05T00:56:11.606Z,14.57
2022-08-05T00:57:16.953Z,14.57
2022-08-05T00:58:27.353Z,14.56
2022-08-05T00:59:44.421Z,14.55
2022-08-05T01:00:50.183Z,14.53
2022-08-05T01:01:53.545Z,14.51
2022-08-05T01:02:59.733Z,14.46
2022-08-05T01:04:03.434Z,14.44
2022-08-05T01:05:17.938Z,14.41
2022-08-05T01:06:21.396Z,14.40
2022-08-05T01:07:36.972Z,14.38
2022-08-05T01:09:03.102Z,14.37
2022-08-05T01:10:09.150Z,14.36
2022-08-05T01:11:22.726Z,14.35
2022-08-05T01:12:30.106Z,14.34
2022-08-05T01:13:58.716Z,14.34
2022-08-05T01:15:05.857Z,14.34
2022-08-05T01:16:32.793Z,14.32
2022-08-05T01:17:44.096Z,14.31
2022-08-05T01:18:56.396Z,14.27
2022-08-05T01:20:07.954Z,14.26
2022-08-05T01:21:22.787Z,14.24
2022-08-05T01:22:34.280Z,14.22
2022-08-05T01:23:53.992Z,14.21
2022-08-05T01:25:41.021Z,14.20
2022-08-05T01:26:53.982Z,14.17
2022-08-05T01:28:24.138Z,14.16
2022-08-05T01:29:34.926Z,14.14
2022-08-05T01:30:50.658Z,14.13
2022-08-05T01:32:02.496Z,14.11
2022-08-05T01:33:09.349Z,14.12
2022-08-05T01:34:16.085Z,14.12
2022-08-05T01:35:52.147Z,14.12
2022-08-05T01:36:52.937Z,14.11
2022-08-05T01:37:57.514Z,14.11
2022-08-05T01:39:04.675Z,14.10
2022-08-05T01:40:13.063Z,14.07
2022-08-05T01:41:20.996Z,14.05
2022-08-05T01:42:28.569Z,14.03
2022-08-05T01:43:33.476Z,14.04
2022-08-05T01:44:39.526Z,14.04
2022-08-05T01:45:43.716Z,14.05
2022-08-05T01:47:02.684Z,14.06
2022-08-05T01:48:10.238Z,14.02
2022-08-05T01:49:23.169Z,13.98
2022-08-05T01:50:32.198Z,13.96
2022-08-05T01:51:36.593Z,13.96
2022-08-05T01:52:43.422Z,13.94
2022-08-05T01:53:58.004Z,13.93
2022-08-05T01:55:05.960Z,13.93
2022-08-05T01:56:10.664Z,13.91
2022-08-05T01:58:12.975Z,13.92
2022-08-05T01:58:45.337Z,13.90
2022-08-05T01:59:56.809Z,13.88
2022-08-05T02:01:04.774Z,13.86
2022-08-05T02:02:10.580Z,13.87
2022-08-05T02:03:24.519Z,13.83
2022-08-05T02:04:38.315Z,13.80
2022-08-05T02:05:46.076Z,13.78
2022-08-05T02:06:53.105Z,13.77
2022-08-05T02:08:00.366Z,13.76
2022-08-05T02:09:07.479Z,13.74
2022-08-05T02:10:11.236Z,13.75
2022-08-05T02:13:16.325Z,13.69
2022-08-05T02:14:29.576Z,13.67
2022-08-05T02:15:37.635Z,13.67
2022-08-05T02:16:52.458Z,13.66
2022-08-05T02:18:27.916Z,13.66
2022-08-05T02:19:34.199Z,13.62
2022-08-05T02:20:54.865Z,13.62
2022-08-05T02:22:17.497Z,13.62
2022-08-05T02:23:33.679Z,13.62
2022-08-05T02:24:40.663Z,13.63
2022-08-05T02:25:49.345Z,13.62
2022-08-05T02:26:57.946Z,13.63
2022-08-05T02:28:01.958Z,13.64
2022-08-05T02:29:21.306Z,13.63
2022-08-05T02:30:28.896Z,13.62
2022-08-05T02:31:35.376Z,13.62
2022-08-05T02:32:39.285Z,13.59
2022-08-05T02:33:57.177Z,13.58
2022-08-05T02:35:13.424Z,13.54
2022-08-05T02:36:20.247Z,13.52
2022-08-05T02:37:25.488Z,13.52
2022-08-05T02:38:35.243Z,13.51
2022-08-05T02:39:41.715Z,13.49
2022-08-05T02:41:00.348Z,13.47
2022-08-05T02:42:26.167Z,13.45
2022-08-05T02:43:31.925Z,13.42
2022-08-05T02:44:40.322Z,13.42
2022-08-05T02:45:53.985Z,13.42
2022-08-05T02:47:01.665Z,13.41
2022-08-05T02:48:11.435Z,13.41
2022-08-05T02:49:17.574Z,13.38
2022-08-05T02:50:22.445Z,13.37
2022-08-05T02:52:03.190Z,13.37
2022-08-05T02:52:53.104Z,13.34
2022-08-05T02:54:34.330Z,13.34
2022-08-05T02:55:51.892Z,13.34
2022-08-05T02:56:59.524Z,13.33
2022-08-05T02:58:09.707Z,13.32
2022-08-05T02:59:16.830Z,13.29
2022-08-05T03:00:27.028Z,13.28
2022-08-05T03:01:32.114Z,13.29
2022-08-05T03:02:39.193Z,13.32
2022-08-05T03:04:02.895Z,13.34
2022-08-05T03:06:57.087Z,13.33
2022-08-05T03:06:59.503Z,13.28
2022-08-05T03:08:08.984Z,13.27
2022-08-05T03:09:15.731Z,13.25
2022-08-05T03:10:24.889Z,13.24
2022-08-05T03:11:54.998Z,13.23
2022-08-05T03:12:54.313Z,13.24
2022-08-05T03:14:03.322Z,13.25
2022-08-05T03:15:09.580Z,13.25
2022-08-05T03:16:17.914Z,13.26
2022-08-05T03:17:25.180Z,13.25
2022-08-05T03:18:30.785Z,13.26
2022-08-05T03:19:36.105Z,13.25
2022-08-05T03:20:44.622Z,13.26
2022-08-05T03:21:52.272Z,13.26
2022-08-05T03:22:57.590Z,13.25
2022-08-05T03:24:02.425Z,13.26
2022-08-05T03:25:31.738Z,13.24
2022-08-05T03:26:32.966Z,13.23
2022-08-05T03:27:57.884Z,13.20
2022-08-05T03:29:01.832Z,13.21
2022-08-05T03:30:08.484Z,13.22
2022-08-05T03:31:25.847Z,13.23
2022-08-05T03:32:40.714Z,13.25
2022-08-05T03:33:53.057Z,13.25
2022-08-05T03:34:57.645Z,13.26
2022-08-05T03:36:01.333Z,13.29
2022-08-05T03:37:07.595Z,13.33
2022-08-05T03:38:12.195Z,13.35
2022-08-05T03:39:20.089Z,13.37
2022-08-05T03:40:32.127Z,13.38
2022-08-05T03:41:38.607Z,13.36
2022-08-05T03:42:52.589Z,13.36
2022-08-05T03:44:09.024Z,13.38
2022-08-05T03:45:21.647Z,13.41
2022-08-05T03:46:29.625Z,13.43
2022-08-05T03:47:35.580Z,13.47
2022-08-05T03:48:47.052Z,13.46
2022-08-05T03:49:51.336Z,13.48
2022-08-05T03:52:36.991Z,13.50
2022-08-05T03:55:00.016Z,13.54
2022-08-05T03:55:53.047Z,13.57
2022-08-05T03:56:09.380Z,13.62
2022-08-05T03:56:52.237Z,13.66
2022-08-05T03:57:56.839Z,13.68
2022-08-05T03:59:03.603Z,13.72
2022-08-05T04:00:11.314Z,13.78
2022-08-05T04:01:20.823Z,13.82
2022-08-05T04:02:39.194Z,13.89
2022-08-05T04:04:09.653Z,13.95
2022-08-05T04:05:15.003Z,14.03
2022-08-05T04:06:19.826Z,14.10
2022-08-05T04:07:24.895Z,14.16
2022-08-05T04:08:36.312Z,14.21
2022-08-05T04:09:53.392Z,14.27
2022-08-05T04:10:58.382Z,14.33
2022-08-05T04:12:01.814Z,14.38
2022-08-05T04:13:06.756Z,14.42
2022-08-05T04:14:09.989Z,14.44
2022-08-05T04:15:24.303Z,14.49
2022-08-05T04:16:32.734Z,14.54
2022-08-05T04:17:55.797Z,14.58
2022-08-05T04:19:01.893Z,14.66
2022-08-05T04:20:06.212Z,14.73
2022-08-05T04:22:05.061Z,14.84
2022-08-05T04:22:38.366Z,14.97
2022-08-05T04:24:05.738Z,15.05
2022-08-05T04:25:10.829Z,15.12
2022-08-05T04:26:14.559Z,15.16
2022-08-05T04:27:41.616Z,15.19
2022-08-05T04:28:50.859Z,15.22
2022-08-05T04:29:55.071Z,15.27
2022-08-05T04:31:01.011Z,15.31
2022-08-05T04:32:04.957Z,15.36
2022-08-05T04:33:11.680Z,15.42
2022-08-05T04:34:33.149Z,15.48
2022-08-05T04:36:16.270Z,15.54
2022-08-05T04:37:03.010Z,15.59
2022-08-05T04:38:07.072Z,15.68
2022-08-05T04:39:11.507Z,15.76
2022-08-05T04:40:19.314Z,15.87
2022-08-05T04:41:34.079Z,15.99
2022-08-05T04:42:41.787Z,16.07
2022-08-05T04:43:48.199Z,16.14
2022-08-05T04:44:57.263Z,16.20
2022-08-05T04:46:05.163Z,16.25
2022-08-05T04:47:10.486Z,16.30
2022-08-05T04:48:18.567Z,16.38
2022-08-05T04:50:01.016Z,16.47
2022-08-05T04:51:03.287Z,16.56
2022-08-05T04:52:14.247Z,16.63
2022-08-05T04:53:20.590Z,16.70
2022-08-05T04:54:27.255Z,16.76
2022-08-05T04:56:14.281Z,16.82
2022-08-05T04:56:59.021Z,16.90
2022-08-05T04:58:03.056Z,16.96
2022-08-05T04:59:24.097Z,17.01
2022-08-05T05:00:31.582Z,17.07
2022-08-05T05:02:08.231Z,17.12
2022-08-05T05:03:03.712Z,17.17
2022-08-05T05:04:07.651Z,17.23
2022-08-05T05:05:26.282Z,17.28
2022-08-05T05:06:40.505Z,17.34
2022-08-05T05:07:52.903Z,17.39
2022-08-05T05:09:00.758Z,17.46
2022-08-05T05:10:10.112Z,17.54
2022-08-05T05:11:15.315Z,17.60
2022-08-05T05:12:20.323Z,17.68
2022-08-05T05:13:26.515Z,17.78
2022-08-05T05:14:36.319Z,17.88
2022-08-05T05:15:56.358Z,17.99
2022-08-05T05:17:03.340Z,18.10
2022-08-05T05:18:08.179Z,18.21
2022-08-05T05:19:19.308Z,18.33
2022-08-05T05:20:29.083Z,18.49
2022-08-05T05:21:33.397Z,18.63
2022-08-05T05:22:40.857Z,18.77
2022-08-05T05:24:04.065Z,18.89
2022-08-05T05:25:16.343Z,19.02
2022-08-05T05:26:28.699Z,19.10
2022-08-05T05:27:41.664Z,19.18
2022-08-05T05:28:50.394Z,19.24
2022-08-05T05:30:04.516Z,19.32
2022-08-05T05:31:09.493Z,19.41
2022-08-05T05:32:12.881Z,19.52
2022-08-05T05:33:23.509Z,19.63
2022-08-05T05:34:27.381Z,19.76
2022-08-05T05:35:38.029Z,19.92
2022-08-05T05:36:43.922Z,20.13
2022-08-05T05:38:01.844Z,20.39
2022-08-05T05:39:09.479Z,20.66
2022-08-05T05:40:16.790Z,20.93
2022-08-05T05:41:24.046Z,21.19
2022-08-05T05:42:27.306Z,21.43
2022-08-05T05:43:57.229Z,21.65
2022-08-05T05:44:59.540Z,21.95
2022-08-05T05:46:02.781Z,22.19
2022-08-05T05:47:21.834Z,22.39
2022-08-05T05:48:27.755Z,22.61
2022-08-05T05:49:32.180Z,22.85
2022-08-05T05:50:44.223Z,23.06
2022-08-05T05:51:50.006Z,23.31
2022-08-05T05:52:54.916Z,23.52
2022-08-05T05:53:59.909Z,23.73
2022-08-05T05:55:07.412Z,23.93
2022-08-05T05:56:16.759Z,24.20
2022-08-05T05:57:51.921Z,24.48
2022-08-05T05:58:57.494Z,24.71
2022-08-05T06:00:10.374Z,24.89
2022-08-05T06:01:18.541Z,25.11
2022-08-05T06:02:36.792Z,25.35
2022-08-05T06:04:01.431Z,25.58
2022-08-05T06:05:10.409Z,25.74
2022-08-05T06:06:22.622Z,25.89
2022-08-05T06:07:41.218Z,26.02
2022-08-05T06:08:49.163Z,26.14
2022-08-05T06:10:01.431Z,26.29
2022-08-05T06:11:10.093Z,26.44
2022-08-05T06:12:16.682Z,26.60
2022-08-05T06:13:24.106Z,26.79
2022-08-05T06:14:28.854Z,26.93
2022-08-05T06:16:28.433Z,27.08
2022-08-05T06:16:58.312Z,27.19
2022-08-05T06:18:01.637Z,27.24
2022-08-05T06:19:07.885Z,27.34
2022-08-05T06:20:18.826Z,27.43
2022-08-05T06:21:36.769Z,27.53
2022-08-05T06:22:41.939Z,27.67
2022-08-05T06:23:45.845Z,27.83
2022-08-05T06:24:54.374Z,27.94
2022-08-05T06:26:13.436Z,28.10
2022-08-05T06:28:10.755Z,28.25
2022-08-05T06:28:47.253Z,28.49
2022-08-05T06:30:02.756Z,28.70
2022-08-05T06:31:18.122Z,28.90
2022-08-05T06:32:29.192Z,29.08
2022-08-05T06:34:05.957Z,29.20
2022-08-05T06:34:59.642Z,29.23
2022-08-05T06:36:10.270Z,29.29
2022-08-05T06:37:17.086Z,29.42
2022-08-05T06:38:47.086Z,29.47
2022-08-05T06:39:50.473Z,29.56
2022-08-05T06:40:54.805Z,29.60
2022-08-05T06:41:59.137Z,29.60
2022-08-05T06:43:03.732Z,29.61
2022-08-05T06:44:07.454Z,29.64
2022-08-05T06:45:21.202Z,29.71
2022-08-05T06:46:36.574Z,29.66
2022-08-05T06:48:11.647Z,29.68
2022-08-05T06:49:05.894Z,29.69
2022-08-05T06:50:17.208Z,29.74
2022-08-05T06:51:26.660Z,29.85
2022-08-05T06:52:40.333Z,29.90
2022-08-05T06:53:43.703Z,29.90
2022-08-05T06:54:57.995Z,29.94
2022-08-05T06:56:03.749Z,30.04
2022-08-05T06:57:13.872Z,30.16
2022-08-05T06:58:36.565Z,30.17
2022-08-05T06:59:42.395Z,30.20
2022-08-05T07:01:01.049Z,30.30
2022-08-05T07:02:04.891Z,30.40
2022-08-05T07:03:09.812Z,30.50
2022-08-05T07:04:13.962Z,30.59
2022-08-05T07:05:19.619Z,30.73
2022-08-05T07:06:27.741Z,30.85
2022-08-05T07:07:35.429Z,30.97
2022-08-05T07:08:53.197Z,31.20
2022-08-05T07:09:58.355Z,31.36
2022-08-05T07:11:03.060Z,31.51
2022-08-05T07:12:08.086Z,31.67
2022-08-05T07:13:56.815Z,31.82
2022-08-05T07:15:11.383Z,32.19
2022-08-05T07:17:58.749Z,32.33
2022-08-05T07:18:29.262Z,32.42
2022-08-05T07:20:57.886Z,32.62
2022-08-05T07:22:09.173Z,32.76
2022-08-05T07:23:13.018Z,32.90
2022-08-05T07:24:32.252Z,33.04
2022-08-05T07:25:55.069Z,33.04
2022-08-05T07:27:00.903Z,33.14
2022-08-05T07:28:09.640Z,33.14
2022-08-05T07:29:16.750Z,33.07
2022-08-05T07:30:25.409Z,33.05
2022-08-05T07:31:54.238Z,33.20
2022-08-05T07:32:59.306Z,33.38
2022-08-05T07:34:03.765Z,33.47
2022-08-05T07:36:02.194Z,33.54
2022-08-05T07:36:33.842Z,33.59
2022-08-05T07:37:39.524Z,33.69
2022-08-05T07:38:44.224Z,33.63
2022-08-05T07:40:25.994Z,33.60
2022-08-05T07:42:13.252Z,33.62
2022-08-05T07:42:41.083Z,33.68
2022-08-05T07:43:47.834Z,33.85
2022-08-05T07:44:52.064Z,34.07
2022-08-05T07:45:57.555Z,34.21
2022-08-05T07:47:02.844Z,34.35
2022-08-05T07:48:11.535Z,34.51
2022-08-05T07:49:18.641Z,34.61
2022-08-05T07:50:28.797Z,34.70
2022-08-05T07:51:48.461Z,34.75
2022-08-05T07:52:59.464Z,34.92
2022-08-05T07:54:04.403Z,35.06
2022-08-05T07:55:44.426Z,35.13
2022-08-05T07:57:02.421Z,35.07
2022-08-05T07:58:03.229Z,34.98
2022-08-05T07:59:08.846Z,34.92
2022-08-05T08:00:14.919Z,34.95
2022-08-05T08:01:22.014Z,35.02
2022-08-05T08:02:31.164Z,35.19
2022-08-05T08:03:51.427Z,35.38
2022-08-05T08:04:55.132Z,35.52
2022-08-05T08:05:59.480Z,35.58
2022-08-05T08:07:05.397Z,35.65
2022-08-05T08:08:12.250Z,35.71
2022-08-05T08:09:15.726Z,35.69
2022-08-05T08:10:21.644Z,35.79
2022-08-05T08:11:27.744Z,35.87
2022-08-05T08:12:50.614Z,35.91
2022-08-05T08:14:01.124Z,35.90
2022-08-05T08:15:05.337Z,36.00
2022-08-05T08:16:34.667Z,36.15
2022-08-05T08:17:46.314Z,36.29
2022-08-05T08:18:57.263Z,36.42
2022-08-05T08:20:43.360Z,36.47
2022-08-05T08:21:26.962Z,36.63
2022-08-05T08:22:30.052Z,36.60
2022-08-05T08:24:01.458Z,36.55
2022-08-05T08:25:03.367Z,36.34
2022-08-05T08:26:09.836Z,36.33
2022-08-05T08:27:16.559Z,36.46
2022-08-05T08:28:36.155Z,36.61
2022-08-05T08:30:05.171Z,36.54
2022-08-05T08:31:06.283Z,36.50
2022-08-05T08:32:10.869Z,36.55
2022-08-05T08:33:15.449Z,36.71
2022-08-05T08:34:30.187Z,36.82
2022-08-05T08:35:41.584Z,36.98
2022-08-05T08:37:04.653Z,37.11
2022-08-05T08:38:16.459Z,37.28
2022-08-05T08:39:21.998Z,37.38
2022-08-05T08:40:25.935Z,37.43
2022-08-05T08:41:52.244Z,37.41
2022-08-05T08:42:57.909Z,37.25
2022-08-05T08:45:24.059Z,37.13
2022-08-05T08:45:48.652Z,37.05
2022-08-05T08:46:53.614Z,37.03
2022-08-05T08:48:12.792Z,37.17
2022-08-05T08:50:11.305Z,37.42
2022-08-05T08:51:23.189Z,37.72
2022-08-05T08:52:20.435Z,37.68
2022-08-05T08:53:26.894Z,37.75
2022-08-05T08:54:32.245Z,37.78
2022-08-05T08:56:03.979Z,37.79
2022-08-05T08:57:03.289Z,37.66
2022-08-05T08:58:07.233Z,37.54
2022-08-05T08:59:14.890Z,37.49
2022-08-05T09:00:22.968Z,37.51
2022-08-05T09:01:27.744Z,37.61
2022-08-05T09:02:31.174Z,37.64
2022-08-05T09:03:40.412Z,37.65
2022-08-05T09:05:16.547Z,37.62
2022-08-05T09:06:16.940Z,37.46
2022-08-05T09:07:29.043Z,37.45
2022-08-05T09:08:43.871Z,37.50
2022-08-05T09:09:48.610Z,37.62
2022-08-05T09:10:54.536Z,37.79
2022-08-05T09:12:03.400Z,37.93
2022-08-05T09:13:19.799Z,37.97
2022-08-05T09:14:57.504Z,38.10
2022-08-05T09:15:53.988Z,38.24
2022-08-05T09:16:58.799Z,38.36
2022-08-05T09:18:04.164Z,38.45
2022-08-05T09:19:08.791Z,38.53
2022-08-05T09:20:21.067Z,38.66
2022-08-05T09:22:22.656Z,38.65
2022-08-05T09:23:09.241Z,38.57
2022-08-05T09:24:14.430Z,38.53
2022-08-05T09:25:24.441Z,38.46
2022-08-05T09:26:53.066Z,38.46
2022-08-05T09:28:05.743Z,38.52
2022-08-05T09:29:18.764Z,38.52
2022-08-05T09:30:23.431Z,38.58
2022-08-05T09:32:41.209Z,38.70
2022-08-05T09:32:53.642Z,38.93
2022-08-05T09:33:59.102Z,39.04
2022-08-05T09:35:11.965Z,39.02
2022-08-05T09:36:45.901Z,39.09
2022-08-05T09:38:17.046Z,39.17
2022-08-05T09:39:23.376Z,39.29
2022-08-05T09:40:33.763Z,39.41
2022-08-05T09:41:56.926Z,39.46
2022-08-05T09:43:02.471Z,39.39
2022-08-05T09:44:40.337Z,39.28
2022-08-05T09:46:07.339Z,39.29
2022-08-05T09:47:12.670Z,39.25
2022-08-05T09:48:29.551Z,39.36
2022-08-05T09:49:40.307Z,39.42
2022-08-05T09:50:59.062Z,39.50
2022-08-05T09:52:21.176Z,39.58
2022-08-05T09:53:54.938Z,39.55
2022-08-05T09:55:06.361Z,39.71
2022-08-05T09:56:29.714Z,39.84
2022-08-05T09:57:35.494Z,39.95
2022-08-05T09:58:44.842Z,39.96
2022-08-05T09:59:58.400Z,40.02
2022-08-05T10:01:15.364Z,40.02
2022-08-05T10:02:32.402Z,39.91
2022-08-05T10:03:56.786Z,39.90
2022-08-05T10:05:05.195Z,39.87
2022-08-05T10:06:15.609Z,39.89
2022-08-05T10:07:19.849Z,39.78
2022-08-05T10:08:35.704Z,39.78
2022-08-05T10:10:14.250Z,39.64
2022-08-05T10:11:21.412Z,39.53
2022-08-05T10:12:33.374Z,39.68
2022-08-05T10:13:47.475Z,39.92
2022-08-05T10:14:54.398Z,40.18
2022-08-05T10:16:00.864Z,40.43
2022-08-05T10:17:36.870Z,40.55
2022-08-05T10:18:38.453Z,40.56
2022-08-05T10:20:03.903Z,40.64
2022-08-05T10:21:08.539Z,40.70
2022-08-05T10:22:29.494Z,40.70
2022-08-05T10:23:59.529Z,40.76
2022-08-05T10:24:58.730Z,40.76
2022-08-05T10:26:05.314Z,40.75
2022-08-05T10:27:12.277Z,40.71
2022-08-05T10:28:29.452Z,40.58
2022-08-05T10:30:41.006Z,40.41
2022-08-05T10:32:54.509Z,40.13
2022-08-05T10:32:54.652Z,40.25
2022-08-05T10:33:52.349Z,39.97
2022-08-05T10:35:01.012Z,39.87
2022-08-05T10:36:06.802Z,39.98
2022-08-05T10:37:12.843Z,40.20
2022-08-05T10:38:18.154Z,40.24
2022-08-05T10:39:59.274Z,40.33
2022-08-05T10:41:05.843Z,40.49
2022-08-05T10:42:13.501Z,40.60
2022-08-05T10:43:35.594Z,40.74
2022-08-05T10:44:39.572Z,40.84
2022-08-05T10:46:06.458Z,40.86
2022-08-05T10:47:26.540Z,40.77
2022-08-05T10:48:40.647Z,40.66
2022-08-05T10:50:33.035Z,40.55
2022-08-05T10:51:29.026Z,40.19
2022-08-05T10:52:49.403Z,40.03
2022-08-05T10:54:00.996Z,39.97
2022-08-05T10:55:10.473Z,39.84
2022-08-05T10:56:25.967Z,39.70
2022-08-05T10:57:32.170Z,39.65
2022-08-05T10:58:48.584Z,39.59
2022-08-05T11:00:18.143Z,39.57
2022-08-05T11:01:55.471Z,39.59
2022-08-05T11:03:25.286Z,39.39
2022-08-05T11:04:31.795Z,39.26
2022-08-05T11:05:40.442Z,39.43
2022-08-05T11:07:07.534Z,39.67
2022-08-05T11:08:37.362Z,39.90
2022-08-05T11:09:46.189Z,40.14
2022-08-05T11:11:01.105Z,40.22
2022-08-05T11:12:50.738Z,40.32
2022-08-05T11:14:00.124Z,40.43
2022-08-05T11:15:19.376Z,40.41
2022-08-05T11:16:47.937Z,40.46
2022-08-05T11:18:07.474Z,40.53
2022-08-05T11:20:10.370Z,40.60
2022-08-05T11:20:53.194Z,40.54
2022-08-05T11:21:57.981Z,40.53
2022-08-05T11:23:08.798Z,40.62
2022-08-05T11:24:30.730Z,40.66
2022-08-05T11:26:04.180Z,40.58
2022-08-05T11:27:51.329Z,40.55
2022-08-05T11:28:56.272Z,40.71
2022-08-05T11:30:00.772Z,40.90
2022-08-05T11:31:57.685Z,41.14
2022-08-05T11:33:34.741Z,41.10
2022-08-05T11:34:54.320Z,41.16
2022-08-05T11:36:08.159Z,41.32
2022-08-05T11:38:30.912Z,41.45
2022-08-05T11:38:55.027Z,41.45
2022-08-05T11:40:03.849Z,41.39
2022-08-05T11:41:14.211Z,41.44
2022-08-05T11:42:37.631Z,41.67
2022-08-05T11:44:05.569Z,41.82
2022-08-05T11:45:14.412Z,42.00
2022-08-05T11:46:33.788Z,42.13
2022-08-05T11:47:49.701Z,42.18
2022-08-05T11:48:53.615Z,42.26
2022-08-05T11:50:00.802Z,42.46
2022-08-05T11:51:05.025Z,42.59
2022-08-05T11:52:11.793Z,42.77
2022-08-05T11:53:15.489Z,42.96
2022-08-05T11:54:33.815Z,43.11
2022-08-05T11:55:39.077Z,43.17
2022-08-05T11:56:50.470Z,43.26
2022-08-05T11:58:09.151Z,43.30
2022-08-05T11:59:16.917Z,43.30
2022-08-05T12:00:29.186Z,43.26
2022-08-05T12:01:33.834Z,43.37
2022-08-05T12:02:40.138Z,43.46
2022-08-05T12:03:44.923Z,43.68
2022-08-05T12:05:06.762Z,43.95
2022-08-05T12:06:12.394Z,44.08
2022-08-05T12:07:18.143Z,44.18
2022-08-05T12:08:49.725Z,44.14
2022-08-05T12:09:56.852Z,44.17
2022-08-05T12:11:05.834Z,44.23
2022-08-05T12:12:10.986Z,44.20
2022-08-05T12:13:18.914Z,44.18
2022-08-05T12:14:43.312Z,43.97
2022-08-05T12:15:50.473Z,43.84
2022-08-05T12:17:00.069Z,43.86
2022-08-05T12:18:10.675Z,43.82
2022-08-05T12:20:26.026Z,43.93
2022-08-05T12:20:42.346Z,44.08
2022-08-05T12:21:48.807Z,44.03
2022-08-05T12:22:52.035Z,43.92
2022-08-05T12:24:05.113Z,43.79
2022-08-05T12:25:14.333Z,43.68
2022-08-05T12:26:19.711Z,43.53
2022-08-05T12:27:25.339Z,43.49
2022-08-05T12:28:36.794Z,43.41
2022-08-05T12:29:42.566Z,43.59
2022-08-05T12:30:57.836Z,43.86
2022-08-05T12:32:09.587Z,44.08
2022-08-05T12:33:27.900Z,44.16
2022-08-05T12:34:38.803Z,44.32
2022-08-05T12:35:44.231Z,44.43
2022-08-05T12:36:53.570Z,44.36
2022-08-05T12:37:57.005Z,44.37
2022-08-05T12:39:01.218Z,44.42
2022-08-05T12:40:11.324Z,44.35
2022-08-05T12:41:34.424Z,44.30
2022-08-05T12:42:38.812Z,44.31
2022-08-05T12:43:52.625Z,44.33
2022-08-05T12:45:08.865Z,44.42
2022-08-05T12:46:28.114Z,44.44
2022-08-05T12:47:33.439Z,44.38
2022-08-05T12:48:39.278Z,44.39
2022-08-05T12:50:04.652Z,44.43
2022-08-05T12:51:21.869Z,44.48
2022-08-05T12:52:42.666Z,44.42
2022-08-05T12:53:55.609Z,44.47
2022-08-05T12:55:00.524Z,44.52
2022-08-05T12:56:34.015Z,44.48
2022-08-05T12:58:52.570Z,44.55
2022-08-05T12:59:13.860Z,44.61
2022-08-05T13:02:00.355Z,44.55
2022-08-05T13:02:01.007Z,44.59
2022-08-05T13:03:12.034Z,44.51
2022-08-05T13:04:21.356Z,44.62
2022-08-05T13:05:25.287Z,44.70
2022-08-05T13:06:52.030Z,44.77
2022-08-05T13:08:00.712Z,44.81
2022-08-05T13:09:09.305Z,44.86
2022-08-05T13:10:19.556Z,45.00
2022-08-05T13:11:47.058Z,45.09
2022-08-05T13:12:51.006Z,45.14
2022-08-05T13:14:06.053Z,45.13
2022-08-05T13:15:18.035Z,45.15
2022-08-05T13:16:28.383Z,45.21
2022-08-05T13:17:41.843Z,45.17
2022-08-05T13:18:52.171Z,45.25
2022-08-05T13:20:01.000Z,45.26
2022-08-05T13:21:05.030Z,45.30
2022-08-05T13:22:10.750Z,45.33
2022-08-05T13:23:16.359Z,45.47
2022-08-05T13:24:27.612Z,45.56
2022-08-05T13:25:52.152Z,45.47
2022-08-05T13:27:04.122Z,45.19
2022-08-05T13:28:07.872Z,44.87
2022-08-05T13:29:18.991Z,44.43
2022-08-05T13:30:33.583Z,44.24
2022-08-05T13:32:05.009Z,44.12
2022-08-05T13:33:04.873Z,44.08
2022-08-05T13:34:24.354Z,44.13
2022-08-05T13:35:43.237Z,44.09
2022-08-05T13:36:53.796Z,44.30
2022-08-05T13:38:05.051Z,44.49
2022-08-05T13:39:24.572Z,44.49
2022-08-05T13:40:51.816Z,44.26
2022-08-05T13:41:56.373Z,44.17
2022-08-05T13:43:00.192Z,44.17
2022-08-05T13:44:04.952Z,44.14
2022-08-05T13:45:11.287Z,44.06
2022-08-05T13:46:15.121Z,44.02
2022-08-05T13:47:35.825Z,44.15
2022-08-05T13:48:57.963Z,44.11
2022-08-05T13:50:04.566Z,44.26
2022-08-05T13:51:10.290Z,44.37
2022-08-05T13:52:16.154Z,44.52
2022-08-05T13:53:20.773Z,44.68
2022-08-05T13:54:26.595Z,44.64
2022-08-05T13:55:41.826Z,44.69
2022-08-05T13:56:54.052Z,44.75
2022-08-05T13:57:57.267Z,44.92
2022-08-05T13:59:06.237Z,44.82
2022-08-05T14:00:30.755Z,44.74
2022-08-05T14:01:44.260Z,44.84
2022-08-05T14:02:50.874Z,44.91
2022-08-05T14:04:12.348Z,44.92
2022-08-05T14:05:29.154Z,45.03
2022-08-05T14:06:35.771Z,45.05
2022-08-05T14:08:00.390Z,45.07
2022-08-05T14:09:08.980Z,45.13
2022-08-05T14:10:18.791Z,45.32
2022-08-05T14:11:22.867Z,45.22
2022-08-05T14:12:32.694Z,45.05
2022-08-05T14:13:38.566Z,44.79
2022-08-05T14:14:41.726Z,44.54
2022-08-05T14:16:07.450Z,44.30
2022-08-05T14:17:16.716Z,44.31
2022-08-05T14:18:23.215Z,44.48
2022-08-05T14:19:28.017Z,44.59
2022-08-05T14:20:34.488Z,44.59
2022-08-05T14:22:10.472Z,44.60
2022-08-05T14:23:01.921Z,44.47
2022-08-05T14:24:11.176Z,44.37
2022-08-05T14:25:21.967Z,44.36
2022-08-05T14:26:37.026Z,44.33
2022-08-05T14:27:47.334Z,44.24
2022-08-05T14:28:52.875Z,44.33
2022-08-05T14:29:56.312Z,44.57
2022-08-05T14:31:01.643Z,44.66
2022-08-05T14:32:13.123Z,44.52
2022-08-05T14:33:22.665Z,44.38
2022-08-05T14:34:27.714Z,44.29
2022-08-05T14:35:50.031Z,44.11
2022-08-05T14:36:54.740Z,43.88
2022-08-05T14:37:58.947Z,43.84
2022-08-05T14:39:06.023Z,43.80
2022-08-05T14:40:17.210Z,43.92
2022-08-05T14:41:20.722Z,44.01
2022-08-05T14:42:25.405Z,44.08
2022-08-05T14:43:57.567Z,44.13
2022-08-05T14:44:56.656Z,44.00
2022-08-05T14:46:01.161Z,43.98
2022-08-05T14:47:04.842Z,44.08
2022-08-05T14:48:32.322Z,44.08
2022-08-05T14:49:59.247Z,43.84
2022-08-05T14:51:01.956Z,43.67
2022-08-05T14:52:06.422Z,43.58
2022-08-05T14:53:14.335Z,43.35
2022-08-05T14:54:28.753Z,43.18
2022-08-05T14:55:39.130Z,43.12
2022-08-05T14:56:44.303Z,43.08
2022-08-05T14:57:55.969Z,43.03
2022-08-05T14:58:59.657Z,42.92
2022-08-05T15:00:05.823Z,43.03
2022-08-05T15:01:15.576Z,43.15
2022-08-05T15:02:21.161Z,43.17
2022-08-05T15:03:24.794Z,43.25
2022-08-05T15:04:29.327Z,43.38
2022-08-05T15:06:12.935Z,43.62
2022-08-05T15:07:02.428Z,43.69
2022-08-05T15:08:15.831Z,43.65
2022-08-05T15:09:51.618Z,43.64
2022-08-05T15:10:50.226Z,43.44
2022-08-05T15:11:55.051Z,43.33
2022-08-05T15:13:04.077Z,43.44
2022-08-05T15:14:08.994Z,43.57
2022-08-05T15:15:15.222Z,43.65
2022-08-05T15:16:18.756Z,43.55
2022-08-05T15:17:46.788Z,43.58
2022-08-05T15:18:49.714Z,43.68
2022-08-05T15:19:57.728Z,43.83
2022-08-05T15:21:07.688Z,43.95
2022-08-05T15:22:28.757Z,43.77
2022-08-05T15:23:33.426Z,43.61
2022-08-05T15:24:43.694Z,43.47
2022-08-05T15:25:53.453Z,43.43
2022-08-05T15:27:00.095Z,43.52
2022-08-05T15:28:05.199Z,43.62
2022-08-05T15:29:10.380Z,43.71
2022-08-05T15:30:20.003Z,43.55
2022-08-05T15:31:25.315Z,43.23
2022-08-05T15:32:38.833Z,42.88
2022-08-05T15:34:19.134Z,42.63